TAF Text Data
IDs:
Format:
Raw Decoded Include METAR

Data at: 1758 UTC 20 May 2022

TAF WPDL 201715Z 2018/2106 15006KT CAVOK
  FM210000 01007KT CAVOK